Tambov, Russia
Current Conditions -  °F | °C
As of 11:00 PM on Wednesday 28 Jan 2015 (Local Time) from UUOO Reporting Station
Haze Haze  
Wind Chill: 19°   Ceiling: 1200
Heat Index: 25°   Visibility: 2.6mi
Dew Point: 23°   Wind: 4mph
Humidity: 93%   Direction: NA
Pressure: 29.94"   Gusts: NA
Location:  52.73°N, 41.43°E
Report Text: UUOO 282000Z VRB02MPS 4300 BR OVC012 M04/M05 Q1014 NOSIG RMK12851040
Loading
Personal Weather Stations






























Interactive Weather Map New forecast layout! Learn more

10-Day Weather Forecast

Advertisements
Track Severe Weather on mobile